Bellona, New York
Current Conditions -  °F | °C
As of 4:02 AM on Friday 24 Oct 2014 (Local Time) from KPEO Reporting Station
Overcast Overcast  
Wind Chill: 49°   Ceiling: 4300
Heat Index: 49°   Visibility: 10mi
Dew Point: 46°   Wind: 3mph
Humidity: 90%   Direction: 280°W
Pressure: 29.96"   Gusts: NA
Location:  42.76°N, 77.01°W
Report Text: KPEO 240802Z AUTO 28003KT 10SM SCT008 OVC043 09/08 A2996 RMK AO2 T00940078
Loading
Personal Weather Stations






























Interactive Weather Map
Tropical Storm Tracking
New forecast layout! Learn more

10-Day Weather Forecast

Advertisements
Track Severe Weather on mobile